Terminal Aerodrome Forecast
Issued by NWS Boston, MA

Current Version | Previous Version | Text Only | Print | Product List | Glossary On
Versions: 1 2 3 4 5 6 7 8 9 10 11 12 13 14 15 16 17 18 19 20 21 22 23 24 25 26 27 28 29 30 31 32 33 34 35 36 37 38 39 40 41 42 43 44 45 46 47 48
000 FTUS41 KBOX 240904 AAA TAFBOS TAF AMD KBOS 240904Z 2409/2512 08004KT 2SM BR BKN004 FM241030 15010KT 5SM -RA BR OVC040 FM241200 15013G30KT 3SM RA BR OVC010 WS020/17045KT FM241600 17017G28KT P6SM OVC010 FM242300 21016G30KT P6SM BKN010 FM250200 21015G27KT P6SM BKN250=

USA.gov is the U.S. government's official web portal to all federal, state and local government web resources and services.